M I D A S
Marine Information and Data Acquisition System
Tripno 1046 of the Zeeleeuw from 2006-03-08 07:44:13 to 2006-03-08 13:42:24
Back to CruiseResearch ActivitiesStationsMapUnderway DataData graphs

EquipmentUnitsComment
TimeDGPSUTC
LatitudeDGPSDM.mWGS84
LongitudeDGPSDM.mWGS84
TemperatureSBE03/SBE38deg celciusITS90
ConductivitySBE21S/mITS90
SalinitySBE21 Practical Salinity Units
ChlorophylAChelsea fluorimeterg/lCalibrated in Aceton
Missing or incorrect values are displayed as -999
Sea surface data collected by the RV Zeeleeuw from 2006-03-08 07:41:22 to 2006-03-08 13:45:06
Time Latitude Longitude Temperature Conductivity Salinity ChlorophylA
2006-03-08 07:42:28 51°13.597 2°56.092 -999 0.492077 3.176919 23.219845
2006-03-08 07:43:28 51°13.578 2°56.122 -999 0.491974 3.176336 23.219845
2006-03-08 07:44:28 51°13.533 2°56.19 -999 0.492077 3.177297 22.714204
2006-03-08 07:45:28 51°13.526 2°56.259 -999 0.491974 3.176904 20.995024
2006-03-08 07:46:28 51°13.523 2°56.247 -999 0.491974 3.176778 13.612665
2006-03-08 07:47:28 51°13.527 2°56.256 -999 0.491871 3.176322 13.713794
2006-03-08 07:48:28 51°13.528 2°56.254 -999 0.491871 3.176322 13.680084
2006-03-08 07:49:28 51°13.527 2°56.262 -999 0.491871 3.176448 13.747503
2006-03-08 07:50:28 51°13.548 2°56.191 -999 0.491871 3.176385 13.713794
2006-03-08 07:51:28 51°13.597 2°56.039 -999 0.491871 3.1767 22.91646
2006-03-08 07:52:28 51°13.66 2°55.896 -999 0.491871 3.176763 22.91646
2006-03-08 07:53:28 51°13.728 2°55.758 -999 0.491871 3.176763 23.017589
2006-03-08 07:54:28 51°13.812 2°55.651 -999 0.491768 3.176055 22.882751
2006-03-08 07:55:28 51°13.91 2°55.578 -999 0.491768 3.176118 23.118717
2006-03-08 07:56:28 51°14.019 2°55.501 -999 0.491768 3.176181 22.91646
2006-03-08 07:57:28 51°14.145 2°55.404 -999 0.491665 3.175536 23.961452
2006-03-08 07:58:28 51°14.268 2°55.252 -999 0.491665 3.175599 22.646785
2006-03-08 07:59:28 51°14.39 2°55.01 -999 0.491665 3.175599 22.040016
2006-03-08 08:00:28 51°14.516 2°54.75 -999 0.491562 3.175016 22.006306
2006-03-08 08:01:28 51°14.654 2°54.5 -999 0.491562 3.175016 22.107435
2006-03-08 08:02:28 51°14.776 2°54.228 -999 0.491459 3.174371 21.871469
2006-03-08 08:03:28 51°14.886 2°53.94 -999 0.491459 3.174371 21.635503
2006-03-08 08:04:28 51°14.989 2°53.643 -999 0.491459 3.174497 21.669212
2006-03-08 08:05:28 51°15.098 2°53.347 -999 0.491459 3.174686 22.275982
2006-03-08 08:06:28 51°15.21 2°53.054 -999 0.491459 3.174875 22.208563
2006-03-08 08:07:28 51°15.321 2°52.764 -999 0.491459 3.175191 22.242272
2006-03-08 08:08:28 51°15.405 2°52.455 -999 0.491459 3.175569 20.893896
2006-03-08 08:09:28 51°15.439 2°52.131 -999 0.491459 3.175885 22.714204
2006-03-08 08:10:28 51°15.433 2°51.806 -999 0.491562 3.176973 22.107435
2006-03-08 08:11:28 51°15.416 2°51.48 -999 0.491562 3.177352 21.837759
2006-03-08 08:12:28 51°15.406 2°51.152 -999 2.311474 18.674721 21.433247
2006-03-08 08:13:28 51°15.396 2°50.823 -999 2.923558 30.785564 16.74764
2006-03-08 08:14:28 51°15.386 2°50.494 -999 2.886643 30.637672 14.623947
2006-03-08 08:15:28 51°15.375 2°50.164 -999 2.907222 30.978979 12.76993
2006-03-08 08:16:28 51°15.367 2°49.832 -999 2.906085 31.026214 11.354136
2006-03-08 08:17:28 51°15.372 2°49.5 -999 2.905982 31.049309 10.342853
2006-03-08 08:18:28 51°15.373 2°49.17 -999 2.907637 31.080999 9.634956
2006-03-08 08:19:28 51°15.368 2°48.841 -999 2.91229 31.142479 9.163024
2006-03-08 08:20:28 51°15.364 2°48.513 -999 2.920563 31.244856 8.792221
2006-03-08 08:21:28 51°15.359 2°48.182 -999 2.9247 31.296543 8.589965
2006-03-08 08:22:28 51°15.355 2°47.849 -999 2.922942 31.275777 8.320289
2006-03-08 08:23:28 51°15.353 2°47.516 -999 2.925424 31.311708 8.118033
2006-03-08 08:24:28 51°15.352 2°47.181 -999 2.925321 31.320883 7.949486
2006-03-08 08:25:28 51°15.351 2°46.848 -999 2.926045 31.337007 7.848358
2006-03-08 08:26:28 51°15.349 2°46.517 -999 2.924597 31.32462 7.780939
2006-03-08 08:27:28 51°15.351 2°46.187 -999 2.924907 31.33302 7.679811
2006-03-08 08:28:28 51°15.352 2°45.857 -999 2.925941 31.349984 7.612392
2006-03-08 08:29:28 51°15.36 2°45.524 -999 2.922219 31.305952 7.646101
2006-03-08 08:30:28 51°15.375 2°45.192 -999 2.927286 31.366835 7.443845
2006-03-08 08:31:28 51°15.394 2°44.864 -999 2.932353 31.414449 7.309007
2006-03-08 08:32:28 51°15.411 2°44.538 -999 2.938041 31.46558 7.207879
2006-03-08 08:33:28 51°15.425 2°44.21 -999 2.952002 31.60307 7.275298
2006-03-08 08:34:28 51°15.442 2°43.879 -999 2.959965 31.680997 7.410136
2006-03-08 08:35:28 51°15.46 2°43.548 -999 2.958931 31.664 7.443845
2006-03-08 08:36:28 51°15.471 2°43.216 -999 2.967825 31.759574 7.544973
2006-03-08 08:37:28 51°15.471 2°42.885 -999 2.962034 31.683487 7.578683
2006-03-08 08:38:28 51°15.472 2°42.553 -999 2.963688 31.703993 7.646101
2006-03-08 08:39:28 51°15.477 2°42.219 -999 2.972066 31.798208 7.74723
2006-03-08 08:40:28 51°15.511 2°41.889 -999 2.973617 31.807923 7.612392
2006-03-08 08:41:28 51°15.532 2°41.556 -999 2.987269 31.938528 7.679811
2006-03-08 08:42:28 51°15.55 2°41.293 -999 2.992337 31.979167 7.646101
2006-03-08 08:43:28 51°15.55 2°41.142 -999 2.993681 31.989277 7.578683
2006-03-08 08:44:28 51°15.553 2°41.036 -999 3.001852 32.067464 7.544973
2006-03-08 08:45:28 51°15.549 2°40.934 -999 3.004024 32.082508 7.511264
2006-03-08 08:46:28 51°15.52 2°40.853 -999 3.010747 32.140642 7.578683
2006-03-08 08:47:28 51°15.477 2°40.793 -999 3.016022 32.181647 7.679811
2006-03-08 08:48:28 51°15.444 2°40.757 -999 3.01778 32.19756 7.780939
2006-03-08 08:49:28 51°15.453 2°40.772 -999 3.020883 32.223531 7.780939
2006-03-08 08:50:28 51°15.467 2°40.798 -999 3.022641 32.239435 7.780939
2006-03-08 08:51:28 51°15.482 2°40.823 -999 3.022021 32.229221 7.780939
2006-03-08 08:52:28 51°15.497 2°40.848 -999 3.020159 32.207273 7.814648
2006-03-08 08:53:28 51°15.512 2°40.873 -999 3.021193 32.219466 7.848358
2006-03-08 08:54:28 51°15.526 2°40.895 -999 3.02171 32.225563 7.848358
2006-03-08 08:55:28 51°15.54 2°40.915 -999 3.018814 32.191424 7.882067
2006-03-08 08:56:28 51°15.554 2°40.932 -999 3.02171 32.227494 7.915777
2006-03-08 08:57:28 51°15.569 2°40.949 -999 3.020676 32.214335 7.915777
2006-03-08 08:58:28 51°15.584 2°40.965 -999 3.014987 32.147282 7.949486
2006-03-08 08:59:28 51°15.629 2°40.898 -999 3.013953 32.137981 7.949486
2006-03-08 09:00:28 51°15.667 2°40.716 -999 3.018401 32.18944 8.118033
2006-03-08 09:01:28 51°15.648 2°40.467 -999 3.017987 32.182635 8.118033
2006-03-08 09:02:28 51°15.624 2°40.141 -999 3.029261 32.287509 8.016905
2006-03-08 09:03:28 51°15.603 2°39.811 -999 3.036191 32.334341 7.949486
2006-03-08 09:04:28 51°15.57 2°39.482 -999 3.037743 32.34294 8.016905
2006-03-08 09:05:28 51°15.54 2°39.152 -999 3.041053 32.375134 8.084324
2006-03-08 09:06:28 51°15.51 2°38.82 -999 3.042501 32.395085 8.118033
2006-03-08 09:07:28 51°15.482 2°38.489 -999 3.046535 32.439675 8.084324
2006-03-08 09:08:28 51°15.457 2°38.157 -999 3.050362 32.471158 8.151742
2006-03-08 09:09:28 51°15.431 2°37.827 -999 3.056258 32.524059 8.185452
2006-03-08 09:10:28 51°15.408 2°37.498 -999 3.062465 32.575718 8.28658
2006-03-08 09:11:28 51°15.385 2°37.168 -999 3.068878 32.628794 8.28658
2006-03-08 09:12:28 51°15.364 2°36.839 -999 3.072085 32.6558 8.28658
2006-03-08 09:13:28 51°15.344 2°36.508 -999 3.074878 32.681825 8.252871
2006-03-08 09:14:28 51°15.326 2°36.176 -999 3.078291 32.70832 8.252871
2006-03-08 09:15:28 51°15.309 2°35.845 -999 3.082843 32.745249 8.151742
2006-03-08 09:16:28 51°15.292 2°35.517 -999 3.08667 32.775596 8.118033
2006-03-08 09:17:28 51°15.272 2°35.191 -999 3.089774 32.794494 8.118033
2006-03-08 09:18:28 51°15.254 2°34.861 -999 3.097326 32.862672 8.185452
2006-03-08 09:19:28 51°15.239 2°34.534 -999 3.100946 32.887592 8.151742
2006-03-08 09:20:28 51°15.22 2°34.243 -999 3.107981 32.938861 8.118033
2006-03-08 09:21:28 51°15.21 2°34.041 -999 3.122981 33.061893 8.185452
2006-03-08 09:22:28 51°15.203 2°33.884 -999 3.12743 33.097363 8.185452
2006-03-08 09:23:28 51°15.17 2°33.701 -999 3.130947 33.121904 8.151742
2006-03-08 09:24:28 51°15.133 2°33.504 -999 3.134051 33.144524 8.185452
2006-03-08 09:25:28 51°15.097 2°33.321 -999 3.13612 33.158943 8.219161
2006-03-08 09:26:28 51°15.072 2°33.185 -999 3.137362 33.168572 8.252871
2006-03-08 09:27:28 51°15.044 2°33.073 -999 3.137982 33.174857 8.252871
2006-03-08 09:28:28 51°14.996 2°33.031 -999 3.13881 33.17866 8.28658
2006-03-08 09:29:28 51°14.949 2°33.071 -999 3.139741 33.180731 8.320289
2006-03-08 09:30:28 51°14.908 2°33.062 -999 3.140776 33.181071 8.320289
2006-03-08 09:31:28 51°14.922 2°32.965 -999 3.140672 33.184762 8.353999
2006-03-08 09:32:28 51°15 2°33 -999 3.141293 33.189082 8.353999
2006-03-08 09:33:28 51°15.019 2°33.052 -999 3.140879 33.189143 8.387708
2006-03-08 09:34:28 51°14.973 2°33.107 -999 3.1415 33.182681 8.387708
2006-03-08 09:35:28 51°14.938 2°33.032 -999 3.140362 33.173291 8.387708
2006-03-08 09:36:28 51°14.948 2°33.001 -999 3.140052 33.186324 8.387708
2006-03-08 09:37:28 51°14.959 2°33.008 -999 3.140983 33.192315 8.387708
2006-03-08 09:38:28 51°14.972 2°33.019 -999 3.141293 33.192024 8.353999
2006-03-08 09:39:28 51°14.985 2°33.03 -999 3.1415 33.193464 8.353999
2006-03-08 09:40:28 51°14.998 2°33.041 -999 3.142741 33.18838 8.353999
2006-03-08 09:41:28 51°15.01 2°33.051 -999 3.143879 33.18797 8.320289
2006-03-08 09:42:28 51°15.023 2°33.062 -999 3.1445 33.185433 8.320289
2006-03-08 09:43:28 51°15.035 2°33.071 -999 3.143672 33.173805 8.320289
2006-03-08 09:44:28 51°15.047 2°33.081 -999 3.143983 33.185263 8.320289
2006-03-08 09:45:28 51°15.061 2°33.089 -999 3.143362 33.184862 8.28658
2006-03-08 09:46:28 51°15.097 2°33.09 -999 3.142948 33.181983 8.320289
2006-03-08 09:47:28 51°15.137 2°33.144 -999 3.142121 33.186021 8.387708
2006-03-08 09:48:28 51°15.111 2°33.232 -999 3.1415 33.181702 8.421418
2006-03-08 09:49:28 51°15.054 2°33.201 -999 3.140879 33.176402 8.421418
2006-03-08 09:50:28 51°15.019 2°33.117 -999 3.139431 33.173179 8.421418
2006-03-08 09:51:28 51°14.982 2°33.071 -999 3.140051 33.17554 8.387708
2006-03-08 09:52:28 51°14.964 2°33.027 -999 3.139948 33.17825 8.387708
2006-03-08 09:53:28 51°14.958 2°33.007 -999 3.140672 33.181821 8.387708
2006-03-08 09:54:28 51°14.964 2°33.008 -999 3.140569 33.179631 8.353999
2006-03-08 09:55:28 51°14.972 2°33.015 -999 3.141086 33.186662 8.353999
2006-03-08 09:56:28 51°14.98 2°33.024 -999 3.140983 33.185452 8.353999
2006-03-08 09:57:28 51°14.989 2°33.033 -999 3.141086 33.187642 8.320289
2006-03-08 09:58:28 51°14.998 2°33.042 -999 3.141603 33.190752 8.320289
2006-03-08 09:59:28 51°15.006 2°33.052 -999 3.1415 33.185621 8.28658
2006-03-08 10:00:28 51°15.014 2°33.061 -999 3.141396 33.183431 8.252871
2006-03-08 10:01:28 51°15.023 2°33.07 -999 3.141189 33.175133 8.252871
2006-03-08 10:02:28 51°15.031 2°33.081 -999 3.1415 33.172886 8.219161
2006-03-08 10:03:28 51°15.039 2°33.092 -999 3.141396 33.171676 8.219161
2006-03-08 10:04:28 51°15.048 2°33.104 -999 3.142017 33.182852 8.185452
2006-03-08 10:05:28 51°15.055 2°33.117 -999 3.141707 33.182162 8.219161
2006-03-08 10:06:28 51°15.062 2°33.13 -999 3.140465 33.167644 8.185452
2006-03-08 10:07:28 51°15.067 2°33.144 -999 3.140051 33.169661 8.185452
2006-03-08 10:08:28 51°15.072 2°33.158 -999 3.139534 33.165571 8.185452
2006-03-08 10:09:28 51°15.076 2°33.173 -999 3.13881 33.160039 8.151742
2006-03-08 10:10:28 51°15.081 2°33.187 -999 3.13912 33.164649 8.151742
2006-03-08 10:11:28 51°15.086 2°33.202 -999 3.139741 33.166031 8.151742
2006-03-08 10:12:28 51°15.093 2°33.217 -999 3.140155 33.167933 8.118033
2006-03-08 10:13:28 51°15.114 2°33.216 -999 3.139327 33.154338 8.185452
2006-03-08 10:14:28 51°15.137 2°33.188 -999 3.139637 33.154051 8.219161
2006-03-08 10:15:28 51°15.152 2°33.158 -999 3.138706 33.151974 8.252871
2006-03-08 10:16:28 51°15.165 2°33.141 -999 3.139534 33.161653 8.219161
2006-03-08 10:17:28 51°15.178 2°33.137 -999 3.141603 33.181932 8.185452
2006-03-08 10:18:28 51°15.193 2°33.139 -999 3.1415 33.181702 8.185452
2006-03-08 10:19:28 51°15.244 2°33.136 -999 3.141603 33.180952 8.185452
2006-03-08 10:20:28 51°15.276 2°33.224 -999 3.1415 33.180722 8.219161
2006-03-08 10:21:28 51°15.233 2°33.289 -999 3.141603 33.178013 8.185452
2006-03-08 10:22:28 51°15.167 2°33.338 -999 3.140362 33.177211 8.151742
2006-03-08 10:23:28 51°15.138 2°33.351 -999 3.140879 33.176402 8.118033
2006-03-08 10:24:28 51°15.136 2°33.365 -999 3.140672 33.174962 8.084324
2006-03-08 10:25:28 51°15.15 2°33.384 -999 3.140672 33.173002 8.050614
2006-03-08 10:26:28 51°15.166 2°33.393 -999 3.140465 33.170583 8.050614
2006-03-08 10:27:28 51°15.171 2°33.398 -999 3.139845 33.169201 8.016905
2006-03-08 10:28:28 51°15.165 2°33.409 -999 3.139948 33.167472 8.016905
2006-03-08 10:29:28 51°15.157 2°33.42 -999 3.140051 33.167702 7.983195
2006-03-08 10:30:28 51°15.154 2°33.425 -999 3.139844 33.166262 7.983195
2006-03-08 10:31:28 51°15.15 2°33.43 -999 3.139948 33.164533 7.983195
2006-03-08 10:32:28 51°15.148 2°33.432 -999 3.139741 33.165052 7.949486
2006-03-08 10:33:28 51°15.147 2°33.432 -999 3.139741 33.165052 7.949486
2006-03-08 10:34:28 51°15.148 2°33.431 -999 3.139638 33.163842 7.915777
2006-03-08 10:35:28 51°15.151 2°33.428 -999 3.139431 33.163381 7.915777
2006-03-08 10:36:28 51°15.155 2°33.421 -999 3.139638 33.162863 7.915777
2006-03-08 10:37:28 51°15.158 2°33.416 -999 3.139741 33.163093 7.882067
2006-03-08 10:38:28 51°15.159 2°33.416 -999 3.139844 33.163324 7.882067
2006-03-08 10:39:28 51°15.159 2°33.419 -999 3.139431 33.161422 7.882067
2006-03-08 10:40:28 51°15.156 2°33.423 -999 3.13912 33.160731 7.848358
2006-03-08 10:41:28 51°15.152 2°33.426 -999 3.139431 33.162402 7.848358
2006-03-08 10:42:28 51°15.15 2°33.427 -999 3.139431 33.161422 7.848358
2006-03-08 10:43:28 51°15.151 2°33.429 -999 3.139741 33.161135 7.848358
2006-03-08 10:44:28 51°15.151 2°33.428 -999 3.139741 33.160155 7.814648
2006-03-08 10:45:28 51°15.152 2°33.428 -999 3.139844 33.160386 7.814648
2006-03-08 10:46:28 51°15.152 2°33.423 -999 3.139741 33.159176 7.780939
2006-03-08 10:47:28 51°15.153 2°33.42 -999 3.140155 33.161078 7.780939
2006-03-08 10:48:28 51°15.156 2°33.42 -999 3.139534 33.157736 7.780939
2006-03-08 10:49:28 51°15.156 2°33.42 -999 3.139534 33.158715 7.780939
2006-03-08 10:50:28 51°15.156 2°33.422 -999 3.139534 33.159694 7.780939
2006-03-08 10:51:28 51°15.155 2°33.422 -999 3.139948 33.15768 7.780939
2006-03-08 10:52:28 51°15.152 2°33.423 -999 3.139948 33.15768 7.780939
2006-03-08 10:53:28 51°15.15 2°33.425 -999 3.139741 33.156239 7.74723
2006-03-08 10:54:28 51°15.149 2°33.427 -999 3.140051 33.154974 7.74723
2006-03-08 10:55:28 51°15.149 2°33.426 -999 3.139637 33.154051 7.74723
2006-03-08 10:56:28 51°15.15 2°33.427 -999 3.139534 33.15382 7.71352
2006-03-08 10:57:28 51°15.15 2°33.426 -999 3.139327 33.151401 7.74723
2006-03-08 10:58:28 51°15.15 2°33.425 -999 3.139017 33.151688 7.71352
2006-03-08 10:59:28 51°15.15 2°33.425 -999 3.139327 33.150422 7.71352
2006-03-08 11:00:28 51°15.151 2°33.425 -999 3.139431 33.151632 7.71352
2006-03-08 11:01:28 51°15.151 2°33.425 -999 3.139327 33.15238 7.679811
2006-03-08 11:02:28 51°15.152 2°33.424 -999 3.139017 33.151688 7.679811
2006-03-08 11:03:28 51°15.153 2°33.423 -999 3.13912 33.149961 7.646101
2006-03-08 11:04:28 51°15.153 2°33.425 -999 3.13881 33.150247 7.646101
2006-03-08 11:05:28 51°15.153 2°33.424 -999 3.13881 33.149268 7.646101
2006-03-08 11:06:28 51°15.153 2°33.421 -999 3.138293 33.149093 7.646101
2006-03-08 11:07:28 51°15.155 2°33.422 -999 3.138499 33.148576 7.646101
2006-03-08 11:08:28 51°15.156 2°33.423 -999 3.137672 33.148687 7.646101
2006-03-08 11:09:28 51°15.155 2°33.422 -999 3.137258 33.148743 7.679811
2006-03-08 11:10:28 51°15.154 2°33.423 -999 3.137258 33.147763 7.679811
2006-03-08 11:11:28 51°15.154 2°33.423 -999 3.137568 33.146498 7.679811
2006-03-08 11:12:28 51°15.154 2°33.422 -999 3.138189 33.145925 7.646101
2006-03-08 11:13:28 51°15.155 2°33.423 -999 3.137775 33.147939 7.646101
2006-03-08 11:14:28 51°15.156 2°33.423 -999 3.137465 33.149204 7.646101
2006-03-08 11:15:28 51°15.156 2°33.421 -999 3.137155 33.148512 7.646101
2006-03-08 11:16:28 51°15.156 2°33.421 -999 3.137568 33.148456 7.646101
2006-03-08 11:17:28 51°15.156 2°33.422 -999 3.137051 33.147302 7.612392
2006-03-08 11:18:28 51°15.155 2°33.423 -999 3.137362 33.147015 7.612392
2006-03-08 11:19:28 51°15.154 2°33.424 -999 3.137465 33.148225 7.612392
2006-03-08 11:20:28 51°15.153 2°33.426 -999 3.137672 33.146729 7.612392
2006-03-08 11:21:28 51°15.153 2°33.426 -999 3.137361 33.146036 7.578683
2006-03-08 11:22:28 51°15.153 2°33.425 -999 3.137155 33.144595 7.578683
2006-03-08 11:23:28 51°15.154 2°33.427 -999 3.137465 33.144309 7.612392
2006-03-08 11:24:28 51°15.154 2°33.425 -999 3.137361 33.143099 7.578683
2006-03-08 11:25:28 51°15.154 2°33.425 -999 3.137258 33.141889 7.578683
2006-03-08 11:26:28 51°15.154 2°33.425 -999 3.137465 33.140393 7.578683
2006-03-08 11:27:28 51°15.155 2°33.426 -999 3.137879 33.140338 7.544973
2006-03-08 11:28:28 51°15.155 2°33.426 -999 3.137672 33.139876 7.544973
2006-03-08 11:29:28 51°15.155 2°33.427 -999 3.137568 33.139645 7.578683
2006-03-08 11:30:28 51°15.154 2°33.427 -999 3.137361 33.139183 7.578683
2006-03-08 11:31:28 51°15.154 2°33.428 -999 3.137155 33.138721 7.578683
2006-03-08 11:32:28 51°15.154 2°33.43 -999 3.137465 33.137457 7.544973
2006-03-08 11:33:28 51°15.153 2°33.429 -999 3.137775 33.13815 7.578683
2006-03-08 11:34:28 51°15.153 2°33.429 -999 3.137361 33.138204 7.578683
2006-03-08 11:35:28 51°15.153 2°33.429 -999 3.137361 33.138204 7.578683
2006-03-08 11:36:28 51°15.153 2°33.428 -999 3.137051 33.137511 7.578683
2006-03-08 11:37:28 51°15.153 2°33.429 -999 3.136948 33.136301 7.578683
2006-03-08 11:38:28 51°15.151 2°33.429 -999 3.137258 33.138952 7.578683
2006-03-08 11:39:28 51°15.15 2°33.43 -999 3.137361 33.137226 7.578683
2006-03-08 11:40:28 51°15.151 2°33.43 -999 3.137258 33.137973 7.578683
2006-03-08 11:41:28 51°15.152 2°33.428 -999 3.136948 33.138259 7.578683
2006-03-08 11:42:28 51°15.154 2°33.427 -999 3.137051 33.140448 7.578683
2006-03-08 11:43:28 51°15.155 2°33.425 -999 3.137258 33.14091 7.578683
2006-03-08 11:44:28 51°15.156 2°33.424 -999 3.137258 33.139931 7.578683
2006-03-08 11:45:28 51°15.156 2°33.424 -999 3.137361 33.140162 7.544973
2006-03-08 11:46:28 51°15.156 2°33.425 -999 3.137568 33.137688 7.544973
2006-03-08 11:47:28 51°15.155 2°33.425 -999 3.137361 33.136247 7.544973
2006-03-08 11:48:28 51°15.149 2°33.423 -999 3.137155 33.137742 7.544973
2006-03-08 11:49:28 51°15.137 2°33.416 -999 3.137361 33.135269 7.646101
2006-03-08 11:50:28 51°15.133 2°33.41 -999 3.135809 33.088788 7.612392
2006-03-08 11:51:28 51°15.135 2°33.399 -999 3.136637 33.090647 7.612392
2006-03-08 11:52:28 51°15.139 2°33.378 -999 3.137465 33.104219 7.578683
2006-03-08 11:53:28 51°15.139 2°33.361 -999 3.137568 33.121061 7.578683
2006-03-08 11:54:28 51°15.145 2°33.355 -999 3.137568 33.125949 7.578683
2006-03-08 11:55:28 51°15.155 2°33.354 -999 3.137258 33.131124 7.578683
2006-03-08 11:56:28 51°15.165 2°33.325 -999 3.137465 33.132565 7.578683
2006-03-08 11:57:28 51°15.114 2°33.281 -999 3.136534 33.133419 7.612392
2006-03-08 11:58:28 51°15.032 2°33.342 -999 3.138189 33.128316 7.612392
2006-03-08 11:59:28 51°14.985 2°33.355 -999 3.13912 33.143111 7.612392
2006-03-08 12:00:28 51°14.945 2°33.31 -999 3.139224 33.149213 7.612392
2006-03-08 12:01:29 51°14.947 2°33.318 -999 3.138603 33.151743 7.679811
2006-03-08 12:02:28 51°14.951 2°33.338 -999 3.137568 33.146498 7.612392
2006-03-08 12:03:28 51°14.963 2°33.338 -999 3.139017 33.132122 7.612392
2006-03-08 12:04:28 51°14.977 2°33.334 -999 3.13881 33.151226 7.612392
2006-03-08 12:05:28 51°14.989 2°33.337 -999 3.13881 33.155142 7.646101
2006-03-08 12:06:28 51°15.001 2°33.34 -999 3.13912 33.154855 7.646101
2006-03-08 12:07:28 51°15.054 2°33.353 -999 3.139431 33.154568 7.646101
2006-03-08 12:08:28 51°15.054 2°33.456 -999 3.140258 33.151521 7.679811
2006-03-08 12:09:28 51°14.995 2°33.486 -999 3.141086 33.154345 7.646101
2006-03-08 12:10:28 51°14.967 2°33.486 -999 3.138913 33.134824 7.612392
2006-03-08 12:11:28 51°14.954 2°33.486 -999 3.132912 33.075444 7.612392
2006-03-08 12:12:28 51°14.943 2°33.474 -999 3.126912 33.026776 7.612392
2006-03-08 12:13:28 51°14.949 2°33.457 -999 3.123291 32.996143 7.612392
2006-03-08 12:14:28 51°14.954 2°33.492 -999 3.121429 32.982166 7.612392
2006-03-08 12:15:28 51°14.976 2°33.494 -999 3.120084 32.97521 7.612392
2006-03-08 12:16:28 51°14.997 2°33.494 -999 3.119877 32.973765 7.612392
2006-03-08 12:17:28 51°15.013 2°33.501 -999 3.120705 32.981496 7.578683
2006-03-08 12:18:28 51°15.028 2°33.513 -999 3.121119 32.983411 7.578683
2006-03-08 12:19:28 51°15.043 2°33.528 -999 3.121429 32.985091 7.578683
2006-03-08 12:20:28 51°15.057 2°33.544 -999 3.121636 32.981661 7.578683
2006-03-08 12:21:28 51°15.069 2°33.561 -999 3.121532 32.979476 7.578683
2006-03-08 12:22:28 51°15.081 2°33.577 -999 3.121119 32.976587 7.544973
2006-03-08 12:23:28 51°15.094 2°33.593 -999 3.120601 32.972487 7.578683
2006-03-08 12:24:28 51°15.106 2°33.607 -999 3.120394 32.975916 7.544973
2006-03-08 12:25:28 51°15.119 2°33.621 -999 3.11967 32.969395 7.578683
2006-03-08 12:26:28 51°15.132 2°33.635 -999 3.11905 32.962134 7.578683
2006-03-08 12:27:28 51°15.142 2°33.647 -999 3.118429 32.956823 7.544973
2006-03-08 12:28:28 51°15.154 2°33.662 -999 3.118532 32.959007 7.544973
2006-03-08 12:29:28 51°15.166 2°33.676 -999 3.117808 32.954434 7.544973
2006-03-08 12:30:28 51°15.177 2°33.688 -999 3.117394 32.953492 7.544973
2006-03-08 12:31:28 51°15.189 2°33.701 -999 3.116774 32.94623 7.544973
2006-03-08 12:32:28 51°15.23 2°33.691 -999 3.115636 32.937787 7.544973
2006-03-08 12:33:28 51°15.31 2°33.73 -999 3.114498 32.934216 7.578683
2006-03-08 12:34:28 51°15.296 2°33.901 -999 3.118739 32.957529 7.578683
2006-03-08 12:35:28 51°15.275 2°34.132 -999 3.109429 32.898262 7.612392
2006-03-08 12:36:28 51°15.237 2°34.231 -999 3.102497 32.848248 7.612392
2006-03-08 12:37:28 51°15.19 2°34.383 -999 3.097118 32.817335 7.646101
2006-03-08 12:38:28 51°15.155 2°34.663 -999 3.093911 32.796283 7.646101
2006-03-08 12:39:28 51°15.106 2°34.988 -999 3.09298 32.780497 7.679811
2006-03-08 12:40:28 51°15.059 2°35.317 -999 3.087187 32.73687 7.646101
2006-03-08 12:41:28 51°15.012 2°35.646 -999 3.08367 32.709215 7.646101
2006-03-08 12:42:28 51°14.97 2°35.97 -999 3.082429 32.69562 7.646101
2006-03-08 12:43:28 51°14.924 2°36.298 -999 3.08098 32.679597 7.646101
2006-03-08 12:44:28 51°14.888 2°36.628 -999 3.079325 32.662118 7.612392
2006-03-08 12:45:28 51°14.849 2°36.955 -999 3.07798 32.642458 7.646101
2006-03-08 12:46:28 51°14.812 2°37.276 -999 3.068774 32.567385 7.646101
2006-03-08 12:47:28 51°14.771 2°37.6 -999 3.065981 32.540412 7.646101
2006-03-08 12:48:28 51°14.734 2°37.925 -999 3.063188 32.522145 7.646101
2006-03-08 12:49:28 51°14.691 2°38.258 -999 3.057602 32.476868 7.646101
2006-03-08 12:50:28 51°14.671 2°38.591 -999 3.049638 32.41326 7.646101
2006-03-08 12:51:28 51°14.652 2°38.919 -999 3.032467 32.260601 7.646101
2006-03-08 12:52:28 51°14.627 2°39.258 -999 3.02533 32.203608 7.679811
2006-03-08 12:53:28 51°14.611 2°39.586 -999 3.0214 32.174676 7.679811
2006-03-08 12:54:28 51°14.592 2°39.91 -999 3.016435 32.126812 7.646101
2006-03-08 12:55:28 51°14.569 2°40.236 -999 3.013849 32.100216 7.646101
2006-03-08 12:56:28 51°14.548 2°40.563 -999 3.009815 32.050815 7.679811
2006-03-08 12:57:28 51°14.52 2°40.889 -999 3.003609 31.985446 7.612392
2006-03-08 12:58:28 51°14.497 2°41.217 -999 2.99275 31.902555 7.646101
2006-03-08 12:59:28 51°14.486 2°41.546 -999 2.985096 31.844877 7.612392
2006-03-08 13:00:28 51°14.483 2°41.878 -999 2.976926 31.753359 7.511264
2006-03-08 13:01:28 51°14.479 2°42.206 -999 2.967101 31.683254 7.544973
2006-03-08 13:02:28 51°14.491 2°42.531 -999 2.957793 31.598187 7.578683
2006-03-08 13:03:28 51°14.502 2°42.854 -999 2.949416 31.514538 7.578683
2006-03-08 13:04:28 51°14.509 2°43.172 -999 2.944245 31.468685 7.578683
2006-03-08 13:05:28 51°14.523 2°43.498 -999 2.938351 31.426566 7.612392
2006-03-08 13:06:28 51°14.523 2°43.825 -999 2.937627 31.41423 7.612392
2006-03-08 13:07:28 51°14.534 2°44.156 -999 2.935455 31.390481 7.612392
2006-03-08 13:08:28 51°14.545 2°44.487 -999 2.934628 31.374095 7.578683
2006-03-08 13:09:28 51°14.556 2°44.814 -999 2.939281 31.406323 7.511264
2006-03-08 13:10:28 51°14.567 2°45.142 -999 2.937316 31.390703 7.511264
2006-03-08 13:11:28 51°14.576 2°45.465 -999 2.935765 31.379959 7.511264
2006-03-08 13:12:28 51°14.591 2°45.786 -999 2.930905 31.332986 7.578683
2006-03-08 13:13:28 51°14.6 2°46.114 -999 2.926768 31.292655 7.646101
2006-03-08 13:14:28 51°14.675 2°46.414 -999 2.92046 31.247405 7.646101
2006-03-08 13:15:28 51°14.768 2°46.708 -999 2.917978 31.219977 7.646101
2006-03-08 13:16:28 51°14.863 2°47 -999 2.915186 31.193593 7.612392
2006-03-08 13:17:28 51°14.949 2°47.298 -999 2.914979 31.181739 7.612392
2006-03-08 13:18:28 51°15.03 2°47.597 -999 2.915186 31.176657 7.612392
2006-03-08 13:19:28 51°15.105 2°47.902 -999 2.915807 31.190567 7.612392
2006-03-08 13:20:28 51°15.157 2°48.226 -999 2.914566 31.180618 7.578683
2006-03-08 13:21:28 51°15.209 2°48.546 -999 2.910636 31.147377 7.612392
2006-03-08 13:22:28 51°15.245 2°48.872 -999 2.909292 31.115532 7.612392
2006-03-08 13:23:28 51°15.267 2°49.205 -999 2.908258 31.103326 7.646101
2006-03-08 13:24:28 51°15.301 2°49.532 -999 2.904949 31.076458 7.646101
2006-03-08 13:25:28 51°15.331 2°49.862 -999 2.904845 31.080865 7.679811
2006-03-08 13:26:28 51°15.365 2°50.192 -999 2.900812 31.033247 7.679811
2006-03-08 13:27:28 51°15.396 2°50.52 -999 2.89802 30.996543 7.71352
2006-03-08 13:28:28 51°15.423 2°50.846 -999 2.894194 30.952322 7.74723
2006-03-08 13:29:28 51°15.451 2°51.167 -999 2.888404 30.907317 7.848358
2006-03-08 13:30:28 51°15.479 2°51.491 -999 2.886232 30.88168 7.882067
2006-03-08 13:31:28 51°15.451 2°51.811 -999 2.887576 30.871439 7.848358
2006-03-08 13:32:28 51°15.372 2°52.121 -999 2.884267 30.843579 7.848358
2006-03-08 13:33:28 51°15.291 2°52.434 -999 2.879407 30.774166 7.882067
2006-03-08 13:34:28 51°15.185 2°52.725 -999 2.875788 30.718517 7.949486
2006-03-08 13:35:28 51°15.084 2°53.017 -999 2.871341 30.665203 8.118033
2006-03-08 13:36:28 51°14.976 2°53.3 -999 2.860484 30.508802 8.219161
2006-03-08 13:37:28 51°14.849 2°53.568 -999 2.85459 30.431227 8.185452
2006-03-08 13:38:28 51°14.734 2°53.843 -999 2.849007 30.360104 8.219161
2006-03-08 13:39:28 51°14.634 2°54.127 -999 2.856451 30.437523 8.219161
2006-03-08 13:40:28 51°14.544 2°54.413 -999 2.859553 30.500612 8.28658
2006-03-08 13:41:28 51°14.472 2°54.713 -999 2.842493 30.272626 8.320289
2006-03-08 13:42:28 51°14.384 2°55.001 -999 2.800515 29.739007 8.488836
2006-03-08 13:43:43 51°14.248 2°55.289 -999 2.734249 28.959581 9.196734
2006-03-08 13:44:44 51°14.16 2°55.384 -999 2.566816 27.012843 9.601247